sensor_id;sensor_type;location;lat;lon;timestamp;P1;durP1;ratioP1;P2;durP2;ratioP2
39896;SDS011;25567;48.276;14.242;2022-07-22T00:01:58;18.77;;;12.60;;
39896;SDS011;25567;48.276;14.242;2022-07-22T00:05:01;25.20;;;12.80;;
39896;SDS011;25567;48.276;14.242;2022-07-22T00:08:36;31.35;;;14.55;;
39896;SDS011;25567;48.276;14.242;2022-07-22T00:11:29;26.38;;;13.80;;
39896;SDS011;25567;48.276;14.242;2022-07-22T00:14:46;23.38;;;14.25;;
39896;SDS011;25567;48.276;14.242;2022-07-22T00:17:39;23.10;;;13.45;;
39896;SDS011;25567;48.276;14.242;2022-07-22T00:20:56;25.05;;;14.05;;
39896;SDS011;25567;48.276;14.242;2022-07-22T00:24:03;26.20;;;13.18;;
39896;SDS011;25567;48.276;14.242;2022-07-22T00:27:21;24.05;;;13.27;;
39896;SDS011;25567;48.276;14.242;2022-07-22T00:30:24;21.77;;;13.18;;
39896;SDS011;25567;48.276;14.242;2022-07-22T00:33:41;24.67;;;14.43;;
39896;SDS011;25567;48.276;14.242;2022-07-22T00:36:44;29.33;;;16.00;;
39896;SDS011;25567;48.276;14.242;2022-07-22T00:40:04;28.27;;;15.40;;
39896;SDS011;25567;48.276;14.242;2022-07-22T00:43:08;28.80;;;16.10;;
39896;SDS011;25567;48.276;14.242;2022-07-22T00:46:25;26.48;;;15.00;;
39896;SDS011;25567;48.276;14.242;2022-07-22T00:49:29;31.20;;;14.88;;
39896;SDS011;25567;48.276;14.242;2022-07-22T00:52:46;26.90;;;15.63;;
39896;SDS011;25567;48.276;14.242;2022-07-22T00:55:40;35.05;;;17.05;;
39896;SDS011;25567;48.276;14.242;2022-07-22T00:58:59;29.60;;;15.95;;
39896;SDS011;25567;48.276;14.242;2022-07-22T01:02:20;30.80;;;14.40;;
39896;SDS011;25567;48.276;14.242;2022-07-22T01:05:13;35.33;;;15.43;;
39896;SDS011;25567;48.276;14.242;2022-07-22T01:08:30;29.13;;;15.05;;
39896;SDS011;25567;48.276;14.242;2022-07-22T01:11:35;30.30;;;14.85;;
39896;SDS011;25567;48.276;14.242;2022-07-22T01:14:52;25.25;;;16.13;;
39896;SDS011;25567;48.276;14.242;2022-07-22T01:17:55;28.70;;;15.00;;
39896;SDS011;25567;48.276;14.242;2022-07-22T01:21:02;26.15;;;14.95;;
39896;SDS011;25567;48.276;14.242;2022-07-22T01:24:07;29.20;;;14.77;;
39896;SDS011;25567;48.276;14.242;2022-07-22T01:27:24;23.50;;;12.88;;
39896;SDS011;25567;48.276;14.242;2022-07-22T01:30:17;23.30;;;12.90;;
39896;SDS011;25567;48.276;14.242;2022-07-22T01:33:34;26.10;;;14.20;;
39896;SDS011;25567;48.276;14.242;2022-07-22T01:36:27;25.95;;;14.60;;
39896;SDS011;25567;48.276;14.242;2022-07-22T01:39:45;24.70;;;14.40;;
39896;SDS011;25567;48.276;14.242;2022-07-22T01:42:38;31.75;;;15.38;;
39896;SDS011;25567;48.276;14.242;2022-07-22T01:45:55;24.58;;;14.85;;
39896;SDS011;25567;48.276;14.242;2022-07-22T01:48:58;28.20;;;14.63;;
39896;SDS011;25567;48.276;14.242;2022-07-22T01:52:15;24.75;;;13.40;;
39896;SDS011;25567;48.276;14.242;2022-07-22T01:55:18;24.67;;;14.40;;
39896;SDS011;25567;48.276;14.242;2022-07-22T01:58:35;32.97;;;16.15;;
39896;SDS011;25567;48.276;14.242;2022-07-22T02:01:53;34.70;;;16.52;;
39896;SDS011;25567;48.276;14.242;2022-07-22T02:04:56;30.05;;;16.17;;
39896;SDS011;25567;48.276;14.242;2022-07-22T02:08:13;26.83;;;14.77;;
39896;SDS011;25567;48.276;14.242;2022-07-22T02:11:16;27.33;;;15.30;;
39896;SDS011;25567;48.276;14.242;2022-07-22T02:14:33;27.42;;;14.98;;
39896;SDS011;25567;48.276;14.242;2022-07-22T02:17:26;28.63;;;14.60;;
39896;SDS011;25567;48.276;14.242;2022-07-22T02:20:43;25.73;;;14.65;;
39896;SDS011;25567;48.276;14.242;2022-07-22T02:23:37;25.35;;;14.27;;
39896;SDS011;25567;48.276;14.242;2022-07-22T02:26:54;24.80;;;15.02;;
39896;SDS011;25567;48.276;14.242;2022-07-22T02:29:47;28.23;;;15.45;;
39896;SDS011;25567;48.276;14.242;2022-07-22T02:33:04;32.35;;;13.48;;
39896;SDS011;25567;48.276;14.242;2022-07-22T02:35:58;27.25;;;14.68;;
39896;SDS011;25567;48.276;14.242;2022-07-22T02:39:15;24.75;;;13.48;;
39896;SDS011;25567;48.276;14.242;2022-07-22T02:42:18;26.73;;;16.65;;
39896;SDS011;25567;48.276;14.242;2022-07-22T02:45:25;23.48;;;14.48;;
39896;SDS011;25567;48.276;14.242;2022-07-22T02:48:28;31.48;;;13.85;;
39896;SDS011;25567;48.276;14.242;2022-07-22T02:51:45;25.98;;;15.52;;
39896;SDS011;25567;48.276;14.242;2022-07-22T02:54:38;29.80;;;16.38;;
39896;SDS011;25567;48.276;14.242;2022-07-22T02:57:55;24.75;;;15.35;;
39896;SDS011;25567;48.276;14.242;2022-07-22T03:00:58;25.60;;;14.50;;
39896;SDS011;25567;48.276;14.242;2022-07-22T03:04:15;24.13;;;14.82;;
39896;SDS011;25567;48.276;14.242;2022-07-22T03:07:18;25.55;;;15.77;;
39896;SDS011;25567;48.276;14.242;2022-07-22T03:10:25;29.83;;;15.32;;
39896;SDS011;25567;48.276;14.242;2022-07-22T03:13:28;26.90;;;15.35;;
39896;SDS011;25567;48.276;14.242;2022-07-22T03:16:45;29.50;;;15.05;;
39896;SDS011;25567;48.276;14.242;2022-07-22T03:19:48;23.13;;;14.82;;
39896;SDS011;25567;48.276;14.242;2022-07-22T03:23:05;27.15;;;15.65;;
39896;SDS011;25567;48.276;14.242;2022-07-22T03:26:02;34.17;;;16.95;;
39896;SDS011;25567;48.276;14.242;2022-07-22T03:29:21;29.40;;;15.98;;
39896;SDS011;25567;48.276;14.242;2022-07-22T03:32:14;38.72;;;16.90;;
39896;SDS011;25567;48.276;14.242;2022-07-22T03:35:31;32.28;;;16.15;;
39896;SDS011;25567;48.276;14.242;2022-07-22T03:38:34;31.05;;;17.98;;
39896;SDS011;25567;48.276;14.242;2022-07-22T03:41:52;33.63;;;16.80;;
39896;SDS011;25567;48.276;14.242;2022-07-22T03:44:45;30.08;;;17.10;;
39896;SDS011;25567;48.276;14.242;2022-07-22T03:48:02;32.85;;;16.58;;
39896;SDS011;25567;48.276;14.242;2022-07-22T03:50:56;32.40;;;18.55;;
39896;SDS011;25567;48.276;14.242;2022-07-22T03:54:13;35.28;;;19.27;;
39896;SDS011;25567;48.276;14.242;2022-07-22T03:57:16;32.50;;;19.48;;
39896;SDS011;25567;48.276;14.242;2022-07-22T04:00:23;37.13;;;20.20;;
39896;SDS011;25567;48.276;14.242;2022-07-22T04:03:26;32.17;;;18.60;;
39896;SDS011;25567;48.276;14.242;2022-07-22T04:06:33;34.63;;;18.27;;
39896;SDS011;25567;48.276;14.242;2022-07-22T04:09:36;33.25;;;18.42;;
39896;SDS011;25567;48.276;14.242;2022-07-22T04:12:56;33.03;;;18.85;;
39896;SDS011;25567;48.276;14.242;2022-07-22T04:15:59;34.20;;;18.17;;
39896;SDS011;25567;48.276;14.242;2022-07-22T04:19:16;34.58;;;17.75;;
39896;SDS011;25567;48.276;14.242;2022-07-22T04:22:09;34.28;;;17.00;;
39896;SDS011;25567;48.276;14.242;2022-07-22T04:25:27;36.40;;;17.85;;
39896;SDS011;25567;48.276;14.242;2022-07-22T04:28:20;42.75;;;17.45;;
39896;SDS011;25567;48.276;14.242;2022-07-22T04:31:37;31.85;;;17.33;;
39896;SDS011;25567;48.276;14.242;2022-07-22T04:34:40;36.83;;;17.25;;
39896;SDS011;25567;48.276;14.242;2022-07-22T04:37:57;33.50;;;17.10;;
39896;SDS011;25567;48.276;14.242;2022-07-22T04:41:00;29.75;;;17.77;;
39896;SDS011;25567;48.276;14.242;2022-07-22T04:44:07;31.75;;;17.00;;
39896;SDS011;25567;48.276;14.242;2022-07-22T04:47:11;36.00;;;18.95;;
39896;SDS011;25567;48.276;14.242;2022-07-22T04:50:31;43.63;;;21.27;;
39896;SDS011;25567;48.276;14.242;2022-07-22T04:53:34;37.58;;;20.73;;
39896;SDS011;25567;48.276;14.242;2022-07-22T04:56:47;35.83;;;20.73;;
39896;SDS011;25567;48.276;14.242;2022-07-22T04:59:50;42.50;;;20.17;;
39896;SDS011;25567;48.276;14.242;2022-07-22T05:02:57;44.90;;;20.20;;
39896;SDS011;25567;48.276;14.242;2022-07-22T05:06:00;38.22;;;18.60;;
39896;SDS011;25567;48.276;14.242;2022-07-22T05:09:17;34.72;;;20.00;;
39896;SDS011;25567;48.276;14.242;2022-07-22T05:12:10;35.38;;;20.05;;
39896;SDS011;25567;48.276;14.242;2022-07-22T05:15:27;38.10;;;21.45;;
39896;SDS011;25567;48.276;14.242;2022-07-22T05:18:30;37.70;;;21.38;;
39896;SDS011;25567;48.276;14.242;2022-07-22T05:21:37;39.00;;;22.42;;
39896;SDS011;25567;48.276;14.242;2022-07-22T05:24:40;38.67;;;22.13;;
39896;SDS011;25567;48.276;14.242;2022-07-22T05:27:51;46.88;;;23.88;;
39896;SDS011;25567;48.276;14.242;2022-07-22T05:30:55;45.53;;;22.83;;
39896;SDS011;25567;48.276;14.242;2022-07-22T05:34:02;50.55;;;24.23;;
39896;SDS011;25567;48.276;14.242;2022-07-22T05:37:06;61.20;;;27.90;;
39896;SDS011;25567;48.276;14.242;2022-07-22T05:40:23;66.85;;;29.20;;
39896;SDS011;25567;48.276;14.242;2022-07-22T05:43:26;62.25;;;28.83;;
39896;SDS011;25567;48.276;14.242;2022-07-22T05:46:43;56.92;;;26.70;;
39896;SDS011;25567;48.276;14.242;2022-07-22T05:49:46;58.53;;;28.40;;
39896;SDS011;25567;48.276;14.242;2022-07-22T05:53:03;59.05;;;28.70;;
39896;SDS011;25567;48.276;14.242;2022-07-22T05:56:06;58.72;;;27.27;;
39896;SDS011;25567;48.276;14.242;2022-07-22T05:59:14;70.20;;;29.27;;
39896;SDS011;25567;48.276;14.242;2022-07-22T06:02:18;63.65;;;30.60;;
39896;SDS011;25567;48.276;14.242;2022-07-22T06:05:25;63.97;;;30.20;;
39896;SDS011;25567;48.276;14.242;2022-07-22T06:08:30;62.95;;;30.52;;
39896;SDS011;25567;48.276;14.242;2022-07-22T06:11:53;51.78;;;27.83;;
39896;SDS011;25567;48.276;14.242;2022-07-22T06:14:56;56.25;;;30.92;;
39896;SDS011;25567;48.276;14.242;2022-07-22T06:18:03;58.88;;;30.38;;
39896;SDS011;25567;48.276;14.242;2022-07-22T06:21:06;62.00;;;31.58;;
39896;SDS011;25567;48.276;14.242;2022-07-22T06:24:13;71.47;;;33.63;;
39896;SDS011;25567;48.276;14.242;2022-07-22T06:27:18;64.07;;;31.80;;
39896;SDS011;25567;48.276;14.242;2022-07-22T06:30:25;71.45;;;34.03;;
39896;SDS011;25567;48.276;14.242;2022-07-22T06:33:29;71.75;;;32.85;;
39896;SDS011;25567;48.276;14.242;2022-07-22T06:36:47;67.28;;;33.67;;
39896;SDS011;25567;48.276;14.242;2022-07-22T06:39:40;68.13;;;32.45;;
39896;SDS011;25567;48.276;14.242;2022-07-22T06:42:57;59.30;;;33.00;;
39896;SDS011;25567;48.276;14.242;2022-07-22T06:45:50;66.90;;;33.88;;
39896;SDS011;25567;48.276;14.242;2022-07-22T06:49:07;58.15;;;31.40;;
39896;SDS011;25567;48.276;14.242;2022-07-22T06:52:10;59.50;;;31.45;;
39896;SDS011;25567;48.276;14.242;2022-07-22T06:55:17;55.67;;;30.17;;
39896;SDS011;25567;48.276;14.242;2022-07-22T06:58:20;57.53;;;29.02;;
39896;SDS011;25567;48.276;14.242;2022-07-22T07:01:27;50.15;;;28.65;;
39896;SDS011;25567;48.276;14.242;2022-07-22T07:04:30;58.72;;;30.92;;
39896;SDS011;25567;48.276;14.242;2022-07-22T07:07:37;56.25;;;30.63;;
39896;SDS011;25567;48.276;14.242;2022-07-22T07:10:40;49.63;;;27.58;;
39896;SDS011;25567;48.276;14.242;2022-07-22T07:13:48;66.53;;;30.33;;
39896;SDS011;25567;48.276;14.242;2022-07-22T07:16:51;50.63;;;27.77;;
39896;SDS011;25567;48.276;14.242;2022-07-22T07:20:11;61.25;;;30.40;;
39896;SDS011;25567;48.276;14.242;2022-07-22T07:23:14;52.03;;;28.13;;
39896;SDS011;25567;48.276;14.242;2022-07-22T07:26:34;49.03;;;29.65;;
39896;SDS011;25567;48.276;14.242;2022-07-22T07:29:39;50.75;;;28.90;;
39896;SDS011;25567;48.276;14.242;2022-07-22T07:32:46;50.60;;;26.38;;
39896;SDS011;25567;48.276;14.242;2022-07-22T07:35:49;55.35;;;28.13;;
39896;SDS011;25567;48.276;14.242;2022-07-22T07:38:56;50.75;;;27.30;;
39896;SDS011;25567;48.276;14.242;2022-07-22T07:41:59;44.50;;;25.55;;
39896;SDS011;25567;48.276;14.242;2022-07-22T07:45:16;42.72;;;24.23;;
39896;SDS011;25567;48.276;14.242;2022-07-22T07:48:13;46.60;;;26.25;;
39896;SDS011;25567;48.276;14.242;2022-07-22T07:51:30;47.75;;;25.90;;
39896;SDS011;25567;48.276;14.242;2022-07-22T07:54:23;48.20;;;26.17;;
39896;SDS011;25567;48.276;14.242;2022-07-22T07:58:00;41.45;;;24.15;;
39896;SDS011;25567;48.276;14.242;2022-07-22T08:01:03;39.15;;;22.90;;
39896;SDS011;25567;48.276;14.242;2022-07-22T08:04:10;44.10;;;25.02;;
39896;SDS011;25567;48.276;14.242;2022-07-22T08:07:26;49.30;;;24.52;;
39896;SDS011;25567;48.276;14.242;2022-07-22T08:10:34;39.33;;;23.63;;
39896;SDS011;25567;48.276;14.242;2022-07-22T08:13:50;43.55;;;23.65;;
39896;SDS011;25567;48.276;14.242;2022-07-22T08:17:07;49.17;;;25.17;;
39896;SDS011;25567;48.276;14.242;2022-07-22T08:20:10;46.60;;;23.10;;
39896;SDS011;25567;48.276;14.242;2022-07-22T08:23:27;48.58;;;24.67;;
39896;SDS011;25567;48.276;14.242;2022-07-22T08:26:21;46.72;;;22.98;;
39896;SDS011;25567;48.276;14.242;2022-07-22T08:29:38;43.80;;;22.67;;
39896;SDS011;25567;48.276;14.242;2022-07-22T08:32:32;49.63;;;22.17;;
39896;SDS011;25567;48.276;14.242;2022-07-22T08:35:49;49.95;;;23.98;;
39896;SDS011;25567;48.276;14.242;2022-07-22T08:38:42;45.60;;;22.55;;
39896;SDS011;25567;48.276;14.242;2022-07-22T08:42:03;46.55;;;22.13;;
39896;SDS011;25567;48.276;14.242;2022-07-22T08:45:06;43.47;;;22.58;;
39896;SDS011;25567;48.276;14.242;2022-07-22T08:48:17;48.22;;;23.42;;
39896;SDS011;25567;48.276;14.242;2022-07-22T08:51:20;40.17;;;21.38;;
39896;SDS011;25567;48.276;14.242;2022-07-22T08:54:28;44.55;;;22.65;;
39896;SDS011;25567;48.276;14.242;2022-07-22T08:57:31;47.47;;;24.08;;
39896;SDS011;25567;48.276;14.242;2022-07-22T09:00:38;49.42;;;22.90;;
39896;SDS011;25567;48.276;14.242;2022-07-22T09:03:46;46.40;;;22.40;;
39896;SDS011;25567;48.276;14.242;2022-07-22T09:07:04;43.25;;;21.83;;
39896;SDS011;25567;48.276;14.242;2022-07-22T09:09:58;54.85;;;23.70;;
39896;SDS011;25567;48.276;14.242;2022-07-22T09:13:15;45.70;;;23.02;;
39896;SDS011;25567;48.276;14.242;2022-07-22T09:16:09;41.10;;;23.23;;
39896;SDS011;25567;48.276;14.242;2022-07-22T09:19:33;45.92;;;23.42;;
39896;SDS011;25567;48.276;14.242;2022-07-22T09:22:38;33.72;;;19.40;;
39896;SDS011;25567;48.276;14.242;2022-07-22T09:26:01;41.80;;;23.13;;
39896;SDS011;25567;48.276;14.242;2022-07-22T09:28:55;39.50;;;19.13;;
39896;SDS011;25567;48.276;14.242;2022-07-22T09:32:15;27.13;;;16.50;;
39896;SDS011;25567;48.276;14.242;2022-07-22T09:35:19;32.78;;;16.02;;
39896;SDS011;25567;48.276;14.242;2022-07-22T09:38:27;35.35;;;18.77;;
39896;SDS011;25567;48.276;14.242;2022-07-22T09:41:31;35.45;;;18.52;;
39896;SDS011;25567;48.276;14.242;2022-07-22T09:44:38;31.40;;;17.73;;
39896;SDS011;25567;48.276;14.242;2022-07-22T09:47:42;32.42;;;18.63;;
39896;SDS011;25567;48.276;14.242;2022-07-22T09:51:00;43.67;;;22.33;;
39896;SDS011;25567;48.276;14.242;2022-07-22T09:53:53;40.10;;;21.67;;
39896;SDS011;25567;48.276;14.242;2022-07-22T09:57:12;37.20;;;18.65;;
39896;SDS011;25567;48.276;14.242;2022-07-22T10:00:23;25.40;;;15.88;;
39896;SDS011;25567;48.276;14.242;2022-07-22T10:03:33;28.17;;;16.60;;
39896;SDS011;25567;48.276;14.242;2022-07-22T10:06:47;26.65;;;15.60;;
39896;SDS011;25567;48.276;14.242;2022-07-22T10:09:42;26.23;;;15.25;;
39896;SDS011;25567;48.276;14.242;2022-07-22T10:13:03;29.73;;;15.43;;
39896;SDS011;25567;48.276;14.242;2022-07-22T10:16:08;22.77;;;12.88;;
39896;SDS011;25567;48.276;14.242;2022-07-22T10:19:26;22.80;;;13.40;;
39896;SDS011;25567;48.276;14.242;2022-07-22T10:26:11;21.30;;;12.15;;
39896;SDS011;25567;48.276;14.242;2022-07-22T10:29:25;20.08;;;12.07;;
39896;SDS011;25567;48.276;14.242;2022-07-22T10:32:42;18.48;;;10.57;;
39896;SDS011;25567;48.276;14.242;2022-07-22T10:39:19;19.95;;;9.05;;
39896;SDS011;25567;48.276;14.242;2022-07-22T10:42:26;14.68;;;8.70;;
39896;SDS011;25567;48.276;14.242;2022-07-22T10:46:14;14.13;;;7.65;;
39896;SDS011;25567;48.276;14.242;2022-07-22T10:49:18;12.82;;;7.50;;
39896;SDS011;25567;48.276;14.242;2022-07-22T10:52:37;14.93;;;8.32;;
39896;SDS011;25567;48.276;14.242;2022-07-22T10:55:31;11.40;;;7.43;;
39896;SDS011;25567;48.276;14.242;2022-07-22T10:58:50;11.48;;;7.82;;
39896;SDS011;25567;48.276;14.242;2022-07-22T11:01:55;11.75;;;7.25;;
39896;SDS011;25567;48.276;14.242;2022-07-22T11:05:02;13.40;;;7.35;;
39896;SDS011;25567;48.276;14.242;2022-07-22T11:08:08;15.10;;;7.95;;
39896;SDS011;25567;48.276;14.242;2022-07-22T11:11:15;14.15;;;7.60;;
39896;SDS011;25567;48.276;14.242;2022-07-22T11:14:22;14.65;;;7.45;;
39896;SDS011;25567;48.276;14.242;2022-07-22T11:17:30;13.43;;;6.82;;
39896;SDS011;25567;48.276;14.242;2022-07-22T11:20:37;11.90;;;7.80;;
39896;SDS011;25567;48.276;14.242;2022-07-22T11:23:44;14.25;;;8.20;;
39896;SDS011;25567;48.276;14.242;2022-07-22T11:26:54;15.20;;;8.43;;
39896;SDS011;25567;48.276;14.242;2022-07-22T11:30:12;16.58;;;8.68;;
39896;SDS011;25567;48.276;14.242;2022-07-22T11:33:07;16.48;;;8.50;;
39896;SDS011;25567;48.276;14.242;2022-07-22T11:36:24;14.88;;;8.35;;
39896;SDS011;25567;48.276;14.242;2022-07-22T11:39:28;12.52;;;8.32;;
39896;SDS011;25567;48.276;14.242;2022-07-22T11:42:46;17.20;;;8.27;;
39896;SDS011;25567;48.276;14.242;2022-07-22T11:46:03;14.15;;;8.40;;
39896;SDS011;25567;48.276;14.242;2022-07-22T11:49:12;13.70;;;8.50;;
39896;SDS011;25567;48.276;14.242;2022-07-22T11:52:16;13.20;;;8.05;;
39896;SDS011;25567;48.276;14.242;2022-07-22T11:55:24;13.00;;;8.48;;
39896;SDS011;25567;48.276;14.242;2022-07-22T11:58:39;14.13;;;7.55;;
39896;SDS011;25567;48.276;14.242;2022-07-22T12:01:57;15.93;;;8.15;;
39896;SDS011;25567;48.276;14.242;2022-07-22T12:05:00;11.82;;;7.55;;
39896;SDS011;25567;48.276;14.242;2022-07-22T12:08:38;9.85;;;7.40;;
39896;SDS011;25567;48.276;14.242;2022-07-22T12:11:36;14.70;;;7.53;;
39896;SDS011;25567;48.276;14.242;2022-07-22T12:14:55;12.93;;;7.00;;
39896;SDS011;25567;48.276;14.242;2022-07-22T12:17:50;12.40;;;6.60;;
39896;SDS011;25567;48.276;14.242;2022-07-22T12:21:07;10.50;;;7.13;;
39896;SDS011;25567;48.276;14.242;2022-07-22T12:24:02;10.88;;;7.03;;
39896;SDS011;25567;48.276;14.242;2022-07-22T12:27:19;11.00;;;7.03;;
39896;SDS011;25567;48.276;14.242;2022-07-22T12:30:13;8.98;;;6.57;;
39896;SDS011;25567;48.276;14.242;2022-07-22T12:33:30;15.65;;;6.32;;
39896;SDS011;25567;48.276;14.242;2022-07-22T12:36:23;9.88;;;6.75;;
39896;SDS011;25567;48.276;14.242;2022-07-22T12:43:04;11.30;;;7.50;;
39896;SDS011;25567;48.276;14.242;2022-07-22T12:46:23;13.95;;;8.18;;
39896;SDS011;25567;48.276;14.242;2022-07-22T12:49:17;12.27;;;7.80;;
39896;SDS011;25567;48.276;14.242;2022-07-22T12:52:37;11.80;;;8.02;;
39896;SDS011;25567;48.276;14.242;2022-07-22T12:56:00;18.80;;;10.30;;
39896;SDS011;25567;48.276;14.242;2022-07-22T12:59:20;21.90;;;14.02;;
39896;SDS011;25567;48.276;14.242;2022-07-22T13:02:34;19.40;;;11.93;;
39896;SDS011;25567;48.276;14.242;2022-07-22T13:05:37;11.98;;;7.57;;
39896;SDS011;25567;48.276;14.242;2022-07-22T13:08:44;14.93;;;8.38;;
39896;SDS011;25567;48.276;14.242;2022-07-22T13:11:47;13.82;;;8.93;;
39896;SDS011;25567;48.276;14.242;2022-07-22T13:15:04;18.08;;;6.90;;
39896;SDS011;25567;48.276;14.242;2022-07-22T13:17:58;15.35;;;7.60;;
39896;SDS011;25567;48.276;14.242;2022-07-22T13:21:15;10.38;;;7.13;;
39896;SDS011;25567;48.276;14.242;2022-07-22T13:24:18;13.15;;;7.40;;
39896;SDS011;25567;48.276;14.242;2022-07-22T13:27:35;14.55;;;7.75;;
39896;SDS011;25567;48.276;14.242;2022-07-22T13:30:28;11.70;;;7.40;;
39896;SDS011;25567;48.276;14.242;2022-07-22T13:33:45;10.98;;;8.15;;
39896;SDS011;25567;48.276;14.242;2022-07-22T13:36:38;11.75;;;7.47;;
39896;SDS011;25567;48.276;14.242;2022-07-22T13:39:58;12.50;;;7.50;;
39896;SDS011;25567;48.276;14.242;2022-07-22T13:42:51;12.32;;;8.57;;
39896;SDS011;25567;48.276;14.242;2022-07-22T13:46:14;13.32;;;8.32;;
39896;SDS011;25567;48.276;14.242;2022-07-22T13:49:17;10.82;;;7.63;;
39896;SDS011;25567;48.276;14.242;2022-07-22T13:52:31;12.07;;;7.50;;
39896;SDS011;25567;48.276;14.242;2022-07-22T13:55:36;11.13;;;8.07;;
39896;SDS011;25567;48.276;14.242;2022-07-22T13:58:54;11.07;;;7.45;;
39896;SDS011;25567;48.276;14.242;2022-07-22T14:01:58;13.93;;;8.40;;
39896;SDS011;25567;48.276;14.242;2022-07-22T14:05:15;11.75;;;8.50;;
39896;SDS011;25567;48.276;14.242;2022-07-22T14:08:08;12.82;;;7.63;;
39896;SDS011;25567;48.276;14.242;2022-07-22T14:11:25;14.35;;;8.40;;
39896;SDS011;25567;48.276;14.242;2022-07-22T14:14:18;12.75;;;7.35;;
39896;SDS011;25567;48.276;14.242;2022-07-22T14:17:35;11.98;;;8.13;;
39896;SDS011;25567;48.276;14.242;2022-07-22T14:20:29;14.50;;;8.18;;
39896;SDS011;25567;48.276;14.242;2022-07-22T14:23:49;12.98;;;8.32;;
39896;SDS011;25567;48.276;14.242;2022-07-22T14:26:42;16.25;;;7.95;;
39896;SDS011;25567;48.276;14.242;2022-07-22T14:29:59;10.77;;;7.85;;
39896;SDS011;25567;48.276;14.242;2022-07-22T14:33:02;13.93;;;8.07;;
39896;SDS011;25567;48.276;14.242;2022-07-22T14:36:09;15.07;;;8.52;;
39896;SDS011;25567;48.276;14.242;2022-07-22T14:39:12;15.20;;;8.57;;
39896;SDS011;25567;48.276;14.242;2022-07-22T14:42:29;17.70;;;8.43;;
39896;SDS011;25567;48.276;14.242;2022-07-22T14:45:32;10.73;;;7.43;;
39896;SDS011;25567;48.276;14.242;2022-07-22T14:48:49;15.30;;;7.97;;
39896;SDS011;25567;48.276;14.242;2022-07-22T14:51:45;10.20;;;7.38;;
39896;SDS011;25567;48.276;14.242;2022-07-22T14:55:02;12.23;;;8.80;;
39896;SDS011;25567;48.276;14.242;2022-07-22T14:58:05;14.48;;;8.27;;
39896;SDS011;25567;48.276;14.242;2022-07-22T15:01:22;16.42;;;8.13;;
39896;SDS011;25567;48.276;14.242;2022-07-22T15:04:22;11.55;;;8.57;;
39896;SDS011;25567;48.276;14.242;2022-07-22T15:07:32;14.98;;;7.65;;
39896;SDS011;25567;48.276;14.242;2022-07-22T15:10:36;12.07;;;8.20;;
39896;SDS011;25567;48.276;14.242;2022-07-22T15:13:42;15.38;;;7.70;;
39896;SDS011;25567;48.276;14.242;2022-07-22T15:16:45;10.60;;;7.68;;
39896;SDS011;25567;48.276;14.242;2022-07-22T15:20:03;10.95;;;7.93;;
39896;SDS011;25567;48.276;14.242;2022-07-22T15:23:07;16.48;;;7.72;;
39896;SDS011;25567;48.276;14.242;2022-07-22T15:26:14;12.68;;;8.40;;
39896;SDS011;25567;48.276;14.242;2022-07-22T15:29:21;12.98;;;8.65;;
39896;SDS011;25567;48.276;14.242;2022-07-22T15:32:30;16.30;;;8.27;;
39896;SDS011;25567;48.276;14.242;2022-07-22T15:35:33;12.68;;;8.30;;
39896;SDS011;25567;48.276;14.242;2022-07-22T15:38:50;13.45;;;8.07;;
39896;SDS011;25567;48.276;14.242;2022-07-22T15:41:54;14.90;;;8.00;;
39896;SDS011;25567;48.276;14.242;2022-07-22T15:45:01;16.48;;;7.50;;
39896;SDS011;25567;48.276;14.242;2022-07-22T15:48:05;12.68;;;8.15;;
39896;SDS011;25567;48.276;14.242;2022-07-22T15:51:22;10.77;;;8.07;;
39896;SDS011;25567;48.276;14.242;2022-07-22T15:54:25;13.52;;;7.70;;
39896;SDS011;25567;48.276;14.242;2022-07-22T15:57:42;12.82;;;8.30;;
39896;SDS011;25567;48.276;14.242;2022-07-22T16:01:07;11.35;;;8.35;;
39896;SDS011;25567;48.276;14.242;2022-07-22T16:04:24;12.05;;;8.32;;
39896;SDS011;25567;48.276;14.242;2022-07-22T16:07:27;12.73;;;9.00;;
39896;SDS011;25567;48.276;14.242;2022-07-22T16:10:45;13.25;;;7.75;;
39896;SDS011;25567;48.276;14.242;2022-07-22T16:13:39;14.52;;;8.13;;
39896;SDS011;25567;48.276;14.242;2022-07-22T16:16:56;12.27;;;8.60;;
39896;SDS011;25567;48.276;14.242;2022-07-22T16:19:59;12.93;;;8.30;;
39896;SDS011;25567;48.276;14.242;2022-07-22T16:23:18;11.88;;;7.85;;
39896;SDS011;25567;48.276;14.242;2022-07-22T16:26:22;13.57;;;8.18;;
39896;SDS011;25567;48.276;14.242;2022-07-22T16:29:38;12.80;;;8.48;;
39896;SDS011;25567;48.276;14.242;2022-07-22T16:32:31;17.83;;;8.70;;
39896;SDS011;25567;48.276;14.242;2022-07-22T16:35:54;12.15;;;8.70;;
39896;SDS011;25567;48.276;14.242;2022-07-22T16:38:57;13.93;;;8.43;;
39896;SDS011;25567;48.276;14.242;2022-07-22T16:42:06;17.05;;;8.82;;
39896;SDS011;25567;48.276;14.242;2022-07-22T16:45:10;14.27;;;8.27;;
39896;SDS011;25567;48.276;14.242;2022-07-22T16:48:27;14.48;;;8.00;;
39896;SDS011;25567;48.276;14.242;2022-07-22T16:51:30;15.38;;;7.55;;
39896;SDS011;25567;48.276;14.242;2022-07-22T16:54:37;11.07;;;7.63;;
39896;SDS011;25567;48.276;14.242;2022-07-22T16:57:41;14.27;;;9.10;;
39896;SDS011;25567;48.276;14.242;2022-07-22T17:00:57;13.98;;;8.55;;
39896;SDS011;25567;48.276;14.242;2022-07-22T17:04:11;15.85;;;9.10;;
39896;SDS011;25567;48.276;14.242;2022-07-22T17:07:14;14.07;;;8.52;;
39896;SDS011;25567;48.276;14.242;2022-07-22T17:10:31;12.57;;;8.18;;
39896;SDS011;25567;48.276;14.242;2022-07-22T17:13:25;17.17;;;9.00;;
39896;SDS011;25567;48.276;14.242;2022-07-22T17:16:41;18.67;;;8.77;;
39896;SDS011;25567;48.276;14.242;2022-07-22T17:19:45;12.23;;;8.25;;
39896;SDS011;25567;48.276;14.242;2022-07-22T17:22:51;17.27;;;8.93;;
39896;SDS011;25567;48.276;14.242;2022-07-22T17:25:55;12.98;;;8.30;;
39896;SDS011;25567;48.276;14.242;2022-07-22T17:29:11;11.43;;;8.43;;
39896;SDS011;25567;48.276;14.242;2022-07-22T17:32:16;13.32;;;8.38;;
39896;SDS011;25567;48.276;14.242;2022-07-22T17:35:32;11.38;;;7.60;;
39896;SDS011;25567;48.276;14.242;2022-07-22T17:38:26;13.07;;;8.30;;
39896;SDS011;25567;48.276;14.242;2022-07-22T17:41:42;13.10;;;8.63;;
39896;SDS011;25567;48.276;14.242;2022-07-22T17:44:46;12.27;;;8.32;;
39896;SDS011;25567;48.276;14.242;2022-07-22T17:48:02;12.57;;;8.65;;
39896;SDS011;25567;48.276;14.242;2022-07-22T17:51:06;19.50;;;8.18;;
39896;SDS011;25567;48.276;14.242;2022-07-22T17:54:12;14.65;;;8.98;;
39896;SDS011;25567;48.276;14.242;2022-07-22T17:57:17;13.85;;;8.90;;
39896;SDS011;25567;48.276;14.242;2022-07-22T18:00:25;12.55;;;8.27;;
39896;SDS011;25567;48.276;14.242;2022-07-22T18:03:29;12.68;;;8.77;;
39896;SDS011;25567;48.276;14.242;2022-07-22T18:06:45;13.40;;;9.23;;
39896;SDS011;25567;48.276;14.242;2022-07-22T18:09:40;11.15;;;8.45;;
39896;SDS011;25567;48.276;14.242;2022-07-22T18:12:56;12.15;;;8.10;;
39896;SDS011;25567;48.276;14.242;2022-07-22T18:16:00;10.93;;;7.50;;
39896;SDS011;25567;48.276;14.242;2022-07-22T18:19:06;11.50;;;8.50;;
39896;SDS011;25567;48.276;14.242;2022-07-22T18:22:10;15.43;;;9.23;;